sensor_id;sensor_type;location;lat;lon;timestamp;pressure;altitude;pressure_sealevel;temperature;humidity
62122;BME280;48108;47.532;19.084;2022-12-07T04:48:37;100306.53;;;1.71;100.00
62122;BME280;48108;47.532;19.084;2022-12-07T04:51:40;100309.19;;;1.71;100.00
62122;BME280;48108;47.532;19.084;2022-12-07T04:54:43;100305.44;;;1.73;100.00
62122;BME280;48108;47.532;19.084;2022-12-07T04:57:46;100312.19;;;1.77;100.00
62122;BME280;48108;47.532;19.084;2022-12-07T05:00:48;100312.66;;;1.83;100.00
62122;BME280;48108;47.532;19.084;2022-12-07T05:03:52;100295.38;;;1.99;100.00
62122;BME280;48108;47.532;19.084;2022-12-07T05:06:54;100298.72;;;2.13;100.00
62122;BME280;48108;47.532;19.084;2022-12-07T05:09:57;100297.50;;;2.17;100.00
62122;BME280;48108;47.532;19.084;2022-12-07T05:13:00;100289.47;;;2.28;100.00
62122;BME280;48108;47.532;19.084;2022-12-07T05:16:03;100284.53;;;2.35;100.00
62122;BME280;48108;47.532;19.084;2022-12-07T05:19:06;100275.19;;;2.40;100.00
62122;BME280;48108;47.532;19.084;2022-12-07T05:22:09;100279.75;;;2.49;100.00
62122;BME280;48108;47.532;19.084;2022-12-07T05:25:11;100269.69;;;2.53;100.00
62122;BME280;48108;47.532;19.084;2022-12-07T05:28:14;100271.50;;;2.53;100.00
62122;BME280;48108;47.532;19.084;2022-12-07T05:31:17;100267.50;;;2.58;100.00
62122;BME280;48108;47.532;19.084;2022-12-07T05:34:20;100267.34;;;2.60;100.00
62122;BME280;48108;47.532;19.084;2022-12-07T05:37:22;100267.59;;;2.57;100.00
62122;BME280;48108;47.532;19.084;2022-12-07T05:40:25;100261.34;;;2.58;100.00
62122;BME280;48108;47.532;19.084;2022-12-07T05:43:28;100265.22;;;2.54;100.00
62122;BME280;48108;47.532;19.084;2022-12-07T05:46:32;100269.31;;;2.58;100.00
62122;BME280;48108;47.532;19.084;2022-12-07T05:49:34;100261.09;;;2.61;100.00
62122;BME280;48108;47.532;19.084;2022-12-07T05:52:37;100265.88;;;2.67;100.00
62122;BME280;48108;47.532;19.084;2022-12-07T05:55:40;100273.06;;;2.76;100.00
62122;BME280;48108;47.532;19.084;2022-12-07T05:58:42;100274.28;;;2.72;100.00
62122;BME280;48108;47.532;19.084;2022-12-07T06:02:06;100277.41;;;2.77;100.00
62122;BME280;48108;47.532;19.084;2022-12-07T06:05:09;100286.22;;;2.78;100.00
62122;BME280;48108;47.532;19.084;2022-12-07T06:08:12;100281.34;;;2.83;100.00
62122;BME280;48108;47.532;19.084;2022-12-07T06:11:17;100287.13;;;2.88;100.00
62122;BME280;48108;47.532;19.084;2022-12-07T06:14:38;100284.78;;;2.94;100.00
62122;BME280;48108;47.532;19.084;2022-12-07T06:17:41;100283.81;;;2.95;100.00
62122;BME280;48108;47.532;19.084;2022-12-07T06:20:44;100282.06;;;3.06;100.00
62122;BME280;48108;47.532;19.084;2022-12-07T06:23:47;100285.69;;;3.05;100.00
62122;BME280;48108;47.532;19.084;2022-12-07T06:26:50;100284.19;;;3.12;100.00
62122;BME280;48108;47.532;19.084;2022-12-07T06:29:53;100276.38;;;3.20;100.00
62122;BME280;48108;47.532;19.084;2022-12-07T06:32:56;100285.19;;;3.21;100.00
62122;BME280;48108;47.532;19.084;2022-12-07T06:35:58;100283.12;;;3.24;100.00
62122;BME280;48108;47.532;19.084;2022-12-07T06:39:01;100278.50;;;3.26;100.00
62122;BME280;48108;47.532;19.084;2022-12-07T06:42:05;100291.44;;;3.31;100.00
62122;BME280;48108;47.532;19.084;2022-12-07T06:45:07;100292.13;;;3.33;100.00
62122;BME280;48108;47.532;19.084;2022-12-07T06:48:10;100296.34;;;3.35;100.00
62122;BME280;48108;47.532;19.084;2022-12-07T06:51:13;100291.69;;;3.28;100.00
62122;BME280;48108;47.532;19.084;2022-12-07T06:54:16;100294.97;;;3.41;100.00
62122;BME280;48108;47.532;19.084;2022-12-07T06:57:19;100304.69;;;3.52;100.00
62122;BME280;48108;47.532;19.084;2022-12-07T07:00:24;100302.63;;;3.34;100.00
62122;BME280;48108;47.532;19.084;2022-12-07T07:03:29;100298.16;;;3.04;100.00
62122;BME280;48108;47.532;19.084;2022-12-07T07:06:32;100302.56;;;2.94;100.00
62122;BME280;48108;47.532;19.084;2022-12-07T07:09:35;100302.69;;;2.71;100.00
62122;BME280;48108;47.532;19.084;2022-12-07T07:12:38;100311.75;;;2.69;100.00
62122;BME280;48108;47.532;19.084;2022-12-07T07:15:40;100309.03;;;2.59;100.00
62122;BME280;48108;47.532;19.084;2022-12-07T07:18:43;100304.28;;;2.63;100.00
62122;BME280;48108;47.532;19.084;2022-12-07T07:21:46;100300.47;;;2.56;100.00
62122;BME280;48108;47.532;19.084;2022-12-07T07:24:49;100315.13;;;2.50;100.00
62122;BME280;48108;47.532;19.084;2022-12-07T07:27:51;100305.78;;;2.35;100.00
62122;BME280;48108;47.532;19.084;2022-12-07T07:30:54;100308.25;;;2.47;100.00
62122;BME280;48108;47.532;19.084;2022-12-07T07:33:59;100309.91;;;2.48;100.00
62122;BME280;48108;47.532;19.084;2022-12-07T07:37:02;100316.69;;;2.53;100.00
62122;BME280;48108;47.532;19.084;2022-12-07T07:40:06;100303.25;;;2.54;100.00
62122;BME280;48108;47.532;19.084;2022-12-07T07:43:09;100301.63;;;2.63;100.00
62122;BME280;48108;47.532;19.084;2022-12-07T07:46:11;100305.75;;;2.67;100.00
62122;BME280;48108;47.532;19.084;2022-12-07T07:49:14;100299.59;;;2.87;100.00
62122;BME280;48108;47.532;19.084;2022-12-07T07:52:17;100303.06;;;3.09;100.00
62122;BME280;48108;47.532;19.084;2022-12-07T07:55:22;100297.41;;;3.23;100.00
62122;BME280;48108;47.532;19.084;2022-12-07T07:58:25;100306.16;;;3.45;100.00
62122;BME280;48108;47.532;19.084;2022-12-07T08:01:28;100308.03;;;3.54;100.00
62122;BME280;48108;47.532;19.084;2022-12-07T08:04:31;100311.69;;;3.62;100.00
62122;BME280;48108;47.532;19.084;2022-12-07T08:07:33;100315.16;;;3.53;100.00
62122;BME280;48108;47.532;19.084;2022-12-07T08:10:36;100314.50;;;3.61;100.00
62122;BME280;48108;47.532;19.084;2022-12-07T08:13:39;100308.28;;;3.51;100.00
62122;BME280;48108;47.532;19.084;2022-12-07T08:16:42;100310.00;;;3.52;100.00
62122;BME280;48108;47.532;19.084;2022-12-07T08:19:45;100310.44;;;3.57;100.00
62122;BME280;48108;47.532;19.084;2022-12-07T08:22:47;100321.13;;;3.67;100.00
62122;BME280;48108;47.532;19.084;2022-12-07T08:25:50;100319.03;;;3.80;100.00
62122;BME280;48108;47.532;19.084;2022-12-07T08:28:52;100327.91;;;3.80;100.00
62122;BME280;48108;47.532;19.084;2022-12-07T08:32:02;100330.31;;;3.93;100.00
62122;BME280;48108;47.532;19.084;2022-12-07T08:35:11;100332.16;;;4.02;100.00
62122;BME280;48108;47.532;19.084;2022-12-07T08:38:13;100328.09;;;3.98;100.00
62122;BME280;48108;47.532;19.084;2022-12-07T08:41:16;100337.03;;;3.97;100.00
62122;BME280;48108;47.532;19.084;2022-12-07T08:44:19;100340.53;;;3.98;100.00
62122;BME280;48108;47.532;19.084;2022-12-07T08:47:23;100339.31;;;4.12;100.00
62122;BME280;48108;47.532;19.084;2022-12-07T08:50:26;100332.34;;;4.40;100.00
62122;BME280;48108;47.532;19.084;2022-12-07T08:53:30;100332.34;;;4.49;100.00
62122;BME280;48108;47.532;19.084;2022-12-07T08:56:33;100326.75;;;4.62;100.00
62122;BME280;48108;47.532;19.084;2022-12-07T08:59:37;100336.81;;;4.88;100.00
62122;BME280;48108;47.532;19.084;2022-12-07T09:02:40;100340.16;;;5.19;100.00
62122;BME280;48108;47.532;19.084;2022-12-07T09:05:43;100336.19;;;5.23;100.00
62122;BME280;48108;47.532;19.084;2022-12-07T09:08:51;100331.78;;;5.51;100.00
62122;BME280;48108;47.532;19.084;2022-12-07T09:11:56;100331.84;;;5.69;100.00
62122;BME280;48108;47.532;19.084;2022-12-07T09:14:59;100338.00;;;5.79;100.00
62122;BME280;48108;47.532;19.084;2022-12-07T09:18:04;100333.31;;;5.81;100.00
62122;BME280;48108;47.532;19.084;2022-12-07T09:21:06;100328.72;;;5.74;100.00
62122;BME280;48108;47.532;19.084;2022-12-07T09:24:11;100315.25;;;5.65;100.00
62122;BME280;48108;47.532;19.084;2022-12-07T09:27:14;100319.13;;;5.81;100.00
62122;BME280;48108;47.532;19.084;2022-12-07T09:30:18;100311.28;;;5.79;100.00
62122;BME280;48108;47.532;19.084;2022-12-07T09:33:20;100318.13;;;5.82;100.00
62122;BME280;48108;47.532;19.084;2022-12-07T09:36:24;100316.44;;;5.81;100.00
62122;BME280;48108;47.532;19.084;2022-12-07T09:39:27;100310.81;;;5.84;100.00
62122;BME280;48108;47.532;19.084;2022-12-07T09:42:36;100309.81;;;5.95;100.00
62122;BME280;48108;47.532;19.084;2022-12-07T09:45:39;100310.28;;;6.08;100.00
62122;BME280;48108;47.532;19.084;2022-12-07T09:48:49;100296.91;;;6.26;100.00
62122;BME280;48108;47.532;19.084;2022-12-07T09:52:01;100295.53;;;6.57;100.00
62122;BME280;48108;47.532;19.084;2022-12-07T09:55:11;100304.25;;;6.77;99.23
62122;BME280;48108;47.532;19.084;2022-12-07T09:58:20;100293.78;;;6.66;98.90
62122;BME280;48108;47.532;19.084;2022-12-07T10:01:24;100294.03;;;6.73;98.81
62122;BME280;48108;47.532;19.084;2022-12-07T10:04:27;100287.03;;;6.80;98.97
62122;BME280;48108;47.532;19.084;2022-12-07T10:07:31;100282.31;;;6.74;99.03
62122;BME280;48108;47.532;19.084;2022-12-07T10:10:35;100285.09;;;6.90;95.75
62122;BME280;48108;47.532;19.084;2022-12-07T10:13:46;100285.75;;;6.66;96.75
62122;BME280;48108;47.532;19.084;2022-12-07T10:16:52;100277.37;;;6.61;96.88
62122;BME280;48108;47.532;19.084;2022-12-07T10:20:16;100280.06;;;6.87;96.16
62122;BME280;48108;47.532;19.084;2022-12-07T10:23:20;100283.75;;;7.12;93.45
62122;BME280;48108;47.532;19.084;2022-12-07T10:26:34;100278.47;;;7.55;91.23
62122;BME280;48108;47.532;19.084;2022-12-07T10:29:39;100272.84;;;7.74;89.78
62122;BME280;48108;47.532;19.084;2022-12-07T10:32:41;100279.12;;;7.99;88.98
62122;BME280;48108;47.532;19.084;2022-12-07T10:35:44;100266.72;;;8.06;87.76
62122;BME280;48108;47.532;19.084;2022-12-07T10:42:04;100261.03;;;7.50;86.23
62122;BME280;48108;47.532;19.084;2022-12-07T10:45:17;100257.91;;;7.71;86.97
62122;BME280;48108;47.532;19.084;2022-12-07T10:55:25;100263.69;;;7.85;83.87
62122;BME280;48108;47.532;19.084;2022-12-07T11:01:58;100253.87;;;8.26;83.79
62122;BME280;48108;47.532;19.084;2022-12-07T11:09:04;100243.81;;;8.28;81.63
62122;BME280;48108;47.532;19.084;2022-12-07T11:22:34;100241.88;;;7.80;84.77
62122;BME280;48108;47.532;19.084;2022-12-07T11:25:47;100235.50;;;7.72;84.54
62122;BME280;48108;47.532;19.084;2022-12-07T11:32:28;100242.12;;;7.52;86.23
62122;BME280;48108;47.532;19.084;2022-12-07T11:35:50;100235.47;;;7.64;86.21
62122;BME280;48108;47.532;19.084;2022-12-07T11:38:59;100237.69;;;7.77;84.10
62122;BME280;48108;47.532;19.084;2022-12-07T11:42:06;100239.84;;;7.73;82.87
62122;BME280;48108;47.532;19.084;2022-12-07T11:45:31;100236.78;;;7.52;85.17
62122;BME280;48108;47.532;19.084;2022-12-07T11:48:38;100236.50;;;7.29;85.76
62122;BME280;48108;47.532;19.084;2022-12-07T11:51:45;100234.34;;;7.33;85.27
62122;BME280;48108;47.532;19.084;2022-12-07T11:54:50;100242.81;;;7.20;87.50
62122;BME280;48108;47.532;19.084;2022-12-07T11:58:03;100247.63;;;7.16;88.31
62122;BME280;48108;47.532;19.084;2022-12-07T12:04:38;100246.34;;;7.20;88.65
62122;BME280;48108;47.532;19.084;2022-12-07T12:07:44;100226.75;;;7.20;85.53
62122;BME280;48108;47.532;19.084;2022-12-07T12:15:16;100227.41;;;7.14;83.55
62122;BME280;48108;47.532;19.084;2022-12-07T12:21:27;100212.19;;;7.22;80.46
62122;BME280;48108;47.532;19.084;2022-12-07T12:24:33;100212.31;;;7.47;81.51
62122;BME280;48108;47.532;19.084;2022-12-07T12:27:40;100204.94;;;7.49;83.08
62122;BME280;48108;47.532;19.084;2022-12-07T12:30:42;100201.12;;;7.60;84.93
62122;BME280;48108;47.532;19.084;2022-12-07T12:33:48;100192.13;;;8.92;81.35
62122;BME280;48108;47.532;19.084;2022-12-07T12:36:52;100184.88;;;11.67;68.96
62122;BME280;48108;47.532;19.084;2022-12-07T12:43:41;100170.94;;;13.81;56.46
62122;BME280;48108;47.532;19.084;2022-12-07T12:46:53;100174.94;;;15.05;53.73
62122;BME280;48108;47.532;19.084;2022-12-07T12:50:17;100174.41;;;16.75;47.75
62122;BME280;48108;47.532;19.084;2022-12-07T12:53:23;100171.53;;;17.50;46.27
62122;BME280;48108;47.532;19.084;2022-12-07T12:59:57;100181.28;;;13.23;54.39
62122;BME280;48108;47.532;19.084;2022-12-07T13:03:05;100182.94;;;11.24;59.52
62122;BME280;48108;47.532;19.084;2022-12-07T13:06:20;100194.53;;;10.19;64.40
62122;BME280;48108;47.532;19.084;2022-12-07T13:09:26;100197.31;;;9.49;66.26
62122;BME280;48108;47.532;19.084;2022-12-07T13:12:31;100196.16;;;8.96;69.51
62122;BME280;48108;47.532;19.084;2022-12-07T13:22:48;100199.56;;;8.08;76.16
62122;BME280;48108;47.532;19.084;2022-12-07T13:26:00;100196.34;;;7.88;73.83
62122;BME280;48108;47.532;19.084;2022-12-07T13:29:15;100216.22;;;7.69;74.51
62122;BME280;48108;47.532;19.084;2022-12-07T13:32:28;100206.22;;;7.37;77.72
62122;BME280;48108;47.532;19.084;2022-12-07T13:35:34;100205.66;;;7.17;77.56
62122;BME280;48108;47.532;19.084;2022-12-07T13:38:38;100205.97;;;7.14;78.39
62122;BME280;48108;47.532;19.084;2022-12-07T13:41:42;100206.03;;;6.96;78.04
62122;BME280;48108;47.532;19.084;2022-12-07T13:44:45;100207.78;;;6.79;79.59
62122;BME280;48108;47.532;19.084;2022-12-07T13:47:54;100207.88;;;6.69;79.72
62122;BME280;48108;47.532;19.084;2022-12-07T13:51:02;100215.03;;;6.43;81.83
62122;BME280;48108;47.532;19.084;2022-12-07T13:54:12;100226.75;;;6.24;84.52
62122;BME280;48108;47.532;19.084;2022-12-07T13:57:16;100220.72;;;6.22;85.11
62122;BME280;48108;47.532;19.084;2022-12-07T14:00:25;100228.34;;;6.17;85.81
62122;BME280;48108;47.532;19.084;2022-12-07T14:03:33;100226.87;;;6.04;87.80
62122;BME280;48108;47.532;19.084;2022-12-07T14:06:47;100229.66;;;6.12;86.25
62122;BME280;48108;47.532;19.084;2022-12-07T14:09:56;100233.91;;;6.05;88.47
62122;BME280;48108;47.532;19.084;2022-12-07T14:13:00;100225.06;;;6.05;88.74
62122;BME280;48108;47.532;19.084;2022-12-07T14:16:15;100217.25;;;5.94;88.36
62122;BME280;48108;47.532;19.084;2022-12-07T14:22:55;100217.16;;;5.67;91.36
62122;BME280;48108;47.532;19.084;2022-12-07T14:26:19;100222.09;;;5.62;91.15
62122;BME280;48108;47.532;19.084;2022-12-07T14:32:29;100236.44;;;5.34;91.92
62122;BME280;48108;47.532;19.084;2022-12-07T14:35:37;100231.72;;;5.18;93.49
62122;BME280;48108;47.532;19.084;2022-12-07T14:38:42;100229.09;;;5.08;95.79
62122;BME280;48108;47.532;19.084;2022-12-07T14:41:45;100231.78;;;4.98;97.24
62122;BME280;48108;47.532;19.084;2022-12-07T14:44:55;100230.13;;;4.88;98.57
62122;BME280;48108;47.532;19.084;2022-12-07T14:47:59;100237.16;;;4.79;98.29
62122;BME280;48108;47.532;19.084;2022-12-07T14:51:21;100245.91;;;4.71;97.78
62122;BME280;48108;47.532;19.084;2022-12-07T14:54:44;100237.78;;;4.63;98.73
62122;BME280;48108;47.532;19.084;2022-12-07T14:57:47;100247.88;;;4.60;97.72
62122;BME280;48108;47.532;19.084;2022-12-07T15:00:49;100251.41;;;4.50;99.23
62122;BME280;48108;47.532;19.084;2022-12-07T15:03:52;100250.84;;;4.37;100.00
62122;BME280;48108;47.532;19.084;2022-12-07T15:07:00;100247.06;;;4.20;100.00
62122;BME280;48108;47.532;19.084;2022-12-07T15:10:03;100251.84;;;4.07;100.00
62122;BME280;48108;47.532;19.084;2022-12-07T15:13:07;100260.91;;;3.95;100.00
62122;BME280;48108;47.532;19.084;2022-12-07T15:16:28;100250.13;;;3.86;100.00
62122;BME280;48108;47.532;19.084;2022-12-07T15:19:50;100259.91;;;3.76;100.00
62122;BME280;48108;47.532;19.084;2022-12-07T15:22:53;100247.53;;;3.66;100.00
62122;BME280;48108;47.532;19.084;2022-12-07T15:25:56;100252.84;;;3.56;100.00
62122;BME280;48108;47.532;19.084;2022-12-07T15:28:59;100259.56;;;3.50;100.00
62122;BME280;48108;47.532;19.084;2022-12-07T15:32:02;100256.31;;;3.37;100.00
62122;BME280;48108;47.532;19.084;2022-12-07T15:35:05;100261.00;;;3.24;100.00
62122;BME280;48108;47.532;19.084;2022-12-07T15:38:08;100256.22;;;3.17;100.00
62122;BME280;48108;47.532;19.084;2022-12-07T15:41:11;100271.97;;;3.09;100.00
62122;BME280;48108;47.532;19.084;2022-12-07T15:44:14;100273.63;;;3.01;100.00
62122;BME280;48108;47.532;19.084;2022-12-07T15:47:40;100282.00;;;2.96;100.00
62122;BME280;48108;47.532;19.084;2022-12-07T15:51:05;100280.13;;;2.87;100.00
62122;BME280;48108;47.532;19.084;2022-12-07T15:54:29;100285.94;;;2.81;100.00
62122;BME280;48108;47.532;19.084;2022-12-07T15:57:33;100283.97;;;2.73;100.00
62122;BME280;48108;47.532;19.084;2022-12-07T16:00:37;100288.22;;;2.85;100.00
62122;BME280;48108;47.532;19.084;2022-12-07T16:03:40;100286.94;;;2.80;100.00
62122;BME280;48108;47.532;19.084;2022-12-07T16:06:43;100286.62;;;2.73;100.00
62122;BME280;48108;47.532;19.084;2022-12-07T16:09:46;100284.69;;;2.75;100.00
62122;BME280;48108;47.532;19.084;2022-12-07T16:12:49;100282.34;;;2.82;100.00
62122;BME280;48108;47.532;19.084;2022-12-07T16:15:52;100282.72;;;2.77;100.00
62122;BME280;48108;47.532;19.084;2022-12-07T16:18:55;100289.47;;;2.81;100.00
62122;BME280;48108;47.532;19.084;2022-12-07T16:21:58;100285.53;;;2.76;100.00
62122;BME280;48108;47.532;19.084;2022-12-07T16:25:01;100276.38;;;2.68;100.00
62122;BME280;48108;47.532;19.084;2022-12-07T16:28:04;100282.25;;;2.72;100.00
62122;BME280;48108;47.532;19.084;2022-12-07T16:31:11;100280.53;;;2.61;100.00
62122;BME280;48108;47.532;19.084;2022-12-07T16:34:14;100290.09;;;2.53;100.00
62122;BME280;48108;47.532;19.084;2022-12-07T16:37:17;100283.75;;;2.44;100.00
62122;BME280;48108;47.532;19.084;2022-12-07T16:40:20;100287.03;;;2.36;100.00
62122;BME280;48108;47.532;19.084;2022-12-07T16:43:23;100290.53;;;2.37;100.00
62122;BME280;48108;47.532;19.084;2022-12-07T16:46:25;100286.47;;;2.54;100.00
62122;BME280;48108;47.532;19.084;2022-12-07T16:49:28;100290.56;;;2.58;100.00
62122;BME280;48108;47.532;19.084;2022-12-07T16:52:31;100293.75;;;2.52;100.00
62122;BME280;48108;47.532;19.084;2022-12-07T16:55:42;100293.12;;;2.48;100.00
62122;BME280;48108;47.532;19.084;2022-12-07T16:58:46;100293.31;;;2.35;100.00
62122;BME280;48108;47.532;19.084;2022-12-07T17:01:50;100293.38;;;2.24;100.00
62122;BME280;48108;47.532;19.084;2022-12-07T17:04:54;100298.09;;;2.20;100.00
62122;BME280;48108;47.532;19.084;2022-12-07T17:07:57;100288.34;;;2.10;100.00
62122;BME280;48108;47.532;19.084;2022-12-07T17:11:00;100298.22;;;2.08;100.00
62122;BME280;48108;47.532;19.084;2022-12-07T17:14:03;100299.59;;;2.02;100.00
62122;BME280;48108;47.532;19.084;2022-12-07T17:17:24;100309.50;;;2.00;100.00
62122;BME280;48108;47.532;19.084;2022-12-07T17:20:27;100318.66;;;1.96;100.00
62122;BME280;48108;47.532;19.084;2022-12-07T17:23:30;100315.66;;;1.89;100.00
62122;BME280;48108;47.532;19.084;2022-12-07T17:26:33;100317.84;;;1.84;100.00
62122;BME280;48108;47.532;19.084;2022-12-07T17:29:37;100318.09;;;1.81;100.00
